sensor_id;sensor_type;location;lat;lon;timestamp;temperature;humidity
41310;DHT22;27057;51.438;-0.010;2024-01-15T00:01:42;4.10;99.90
41310;DHT22;27057;51.438;-0.010;2024-01-15T00:04:11;4.00;99.90
41310;DHT22;27057;51.438;-0.010;2024-01-15T00:06:38;3.90;99.90
41310;DHT22;27057;51.438;-0.010;2024-01-15T00:09:06;3.90;99.90
41310;DHT22;27057;51.438;-0.010;2024-01-15T00:11:33;3.80;99.90
41310;DHT22;27057;51.438;-0.010;2024-01-15T00:14:01;3.80;99.90
41310;DHT22;27057;51.438;-0.010;2024-01-15T00:16:28;3.70;99.90
41310;DHT22;27057;51.438;-0.010;2024-01-15T00:18:55;3.60;99.90
41310;DHT22;27057;51.438;-0.010;2024-01-15T00:21:23;3.60;99.90
41310;DHT22;27057;51.438;-0.010;2024-01-15T00:23:50;3.60;99.90
41310;DHT22;27057;51.438;-0.010;2024-01-15T00:26:18;3.60;99.90
41310;DHT22;27057;51.438;-0.010;2024-01-15T00:28:45;3.50;99.90
41310;DHT22;27057;51.438;-0.010;2024-01-15T00:31:12;3.40;99.90
41310;DHT22;27057;51.438;-0.010;2024-01-15T00:33:40;3.40;99.90
41310;DHT22;27057;51.438;-0.010;2024-01-15T00:36:08;3.40;99.90
41310;DHT22;27057;51.438;-0.010;2024-01-15T00:38:36;3.30;99.90
41310;DHT22;27057;51.438;-0.010;2024-01-15T00:41:04;3.30;99.90
41310;DHT22;27057;51.438;-0.010;2024-01-15T00:43:31;3.30;99.90
41310;DHT22;27057;51.438;-0.010;2024-01-15T00:46:02;3.30;99.90
41310;DHT22;27057;51.438;-0.010;2024-01-15T00:48:30;3.20;99.90
41310;DHT22;27057;51.438;-0.010;2024-01-15T00:50:57;3.20;99.90
41310;DHT22;27057;51.438;-0.010;2024-01-15T00:53:25;3.10;99.90
41310;DHT22;27057;51.438;-0.010;2024-01-15T00:55:53;3.10;99.90
41310;DHT22;27057;51.438;-0.010;2024-01-15T00:58:21;3.10;99.90
41310;DHT22;27057;51.438;-0.010;2024-01-15T01:00:49;3.10;99.90
41310;DHT22;27057;51.438;-0.010;2024-01-15T01:03:16;3.00;99.90
41310;DHT22;27057;51.438;-0.010;2024-01-15T01:05:44;3.00;99.90
41310;DHT22;27057;51.438;-0.010;2024-01-15T01:08:12;3.00;99.90
41310;DHT22;27057;51.438;-0.010;2024-01-15T01:10:39;2.90;99.90
41310;DHT22;27057;51.438;-0.010;2024-01-15T01:13:07;2.90;99.90
41310;DHT22;27057;51.438;-0.010;2024-01-15T01:15:34;3.10;99.90
41310;DHT22;27057;51.438;-0.010;2024-01-15T01:18:02;2.90;99.90
41310;DHT22;27057;51.438;-0.010;2024-01-15T01:20:30;2.80;99.90
41310;DHT22;27057;51.438;-0.010;2024-01-15T01:25:25;2.80;99.90
41310;DHT22;27057;51.438;-0.010;2024-01-15T01:27:53;2.70;99.90
41310;DHT22;27057;51.438;-0.010;2024-01-15T01:32:48;2.70;99.90
41310;DHT22;27057;51.438;-0.010;2024-01-15T01:35:19;2.90;99.90
41310;DHT22;27057;51.438;-0.010;2024-01-15T01:37:46;2.70;99.90
41310;DHT22;27057;51.438;-0.010;2024-01-15T01:40:13;2.50;99.90
41310;DHT22;27057;51.438;-0.010;2024-01-15T01:42:41;2.80;99.90
41310;DHT22;27057;51.438;-0.010;2024-01-15T01:45:08;2.50;99.90
41310;DHT22;27057;51.438;-0.010;2024-01-15T01:50:04;1.10;99.90
41310;DHT22;27057;51.438;-0.010;2024-01-15T01:52:32;2.50;99.90
41310;DHT22;27057;51.438;-0.010;2024-01-15T01:55:01;2.20;99.90
41310;DHT22;27057;51.438;-0.010;2024-01-15T01:57:30;2.20;99.90
41310;DHT22;27057;51.438;-0.010;2024-01-15T01:59:59;2.50;99.90
41310;DHT22;27057;51.438;-0.010;2024-01-15T02:04:54;2.40;99.90
41310;DHT22;27057;51.438;-0.010;2024-01-15T02:07:22;2.20;99.90
41310;DHT22;27057;51.438;-0.010;2024-01-15T02:09:50;2.70;99.90
41310;DHT22;27057;51.438;-0.010;2024-01-15T02:14:45;2.00;99.90
41310;DHT22;27057;51.438;-0.010;2024-01-15T02:17:13;2.20;99.90
41310;DHT22;27057;51.438;-0.010;2024-01-15T02:19:40;2.10;99.90
41310;DHT22;27057;51.438;-0.010;2024-01-15T02:24:36;2.00;99.90
41310;DHT22;27057;51.438;-0.010;2024-01-15T02:29:31;2.10;99.90
41310;DHT22;27057;51.438;-0.010;2024-01-15T02:31:59;2.20;99.90
41310;DHT22;27057;51.438;-0.010;2024-01-15T02:34:26;2.10;99.90
41310;DHT22;27057;51.438;-0.010;2024-01-15T02:39:26;1.80;99.90
41310;DHT22;27057;51.438;-0.010;2024-01-15T02:41:53;1.90;99.90
41310;DHT22;27057;51.438;-0.010;2024-01-15T02:44:23;1.90;99.90
41310;DHT22;27057;51.438;-0.010;2024-01-15T02:46:50;1.90;99.90
41310;DHT22;27057;51.438;-0.010;2024-01-15T02:49:18;1.90;99.90
41310;DHT22;27057;51.438;-0.010;2024-01-15T02:51:45;1.80;99.90
41310;DHT22;27057;51.438;-0.010;2024-01-15T02:54:14;1.70;99.90
41310;DHT22;27057;51.438;-0.010;2024-01-15T02:56:41;1.70;99.90
41310;DHT22;27057;51.438;-0.010;2024-01-15T02:59:08;1.70;99.90
41310;DHT22;27057;51.438;-0.010;2024-01-15T03:01:36;1.50;99.90
41310;DHT22;27057;51.438;-0.010;2024-01-15T03:04:03;1.60;99.90
41310;DHT22;27057;51.438;-0.010;2024-01-15T03:06:31;1.70;99.90
41310;DHT22;27057;51.438;-0.010;2024-01-15T03:08:58;1.70;99.90
41310;DHT22;27057;51.438;-0.010;2024-01-15T03:11:25;1.60;99.90
41310;DHT22;27057;51.438;-0.010;2024-01-15T03:13:53;1.70;99.90
41310;DHT22;27057;51.438;-0.010;2024-01-15T03:16:21;1.60;99.90
41310;DHT22;27057;51.438;-0.010;2024-01-15T03:21:16;1.70;99.90
41310;DHT22;27057;51.438;-0.010;2024-01-15T03:23:43;1.60;99.90
41310;DHT22;27057;51.438;-0.010;2024-01-15T03:26:11;1.60;99.90
41310;DHT22;27057;51.438;-0.010;2024-01-15T03:28:38;1.60;99.90
41310;DHT22;27057;51.438;-0.010;2024-01-15T03:31:07;1.60;99.90
41310;DHT22;27057;51.438;-0.010;2024-01-15T03:36:03;1.30;99.90
41310;DHT22;27057;51.438;-0.010;2024-01-15T03:38:30;1.60;99.90
41310;DHT22;27057;51.438;-0.010;2024-01-15T03:40:57;1.50;99.90
41310;DHT22;27057;51.438;-0.010;2024-01-15T03:43:27;1.60;99.90
41310;DHT22;27057;51.438;-0.010;2024-01-15T03:45:54;1.50;99.90
41310;DHT22;27057;51.438;-0.010;2024-01-15T03:48:22;1.50;99.90
41310;DHT22;27057;51.438;-0.010;2024-01-15T03:50:49;1.60;99.90
41310;DHT22;27057;51.438;-0.010;2024-01-15T03:58:12;2.00;99.90
41310;DHT22;27057;51.438;-0.010;2024-01-15T04:00:42;2.60;99.90
41310;DHT22;27057;51.438;-0.010;2024-01-15T04:03:10;1.80;99.90
41310;DHT22;27057;51.438;-0.010;2024-01-15T04:05:38;1.40;99.90
41310;DHT22;27057;51.438;-0.010;2024-01-15T04:08:05;1.50;99.90
41310;DHT22;27057;51.438;-0.010;2024-01-15T04:15:30;1.70;99.90
41310;DHT22;27057;51.438;-0.010;2024-01-15T04:22:54;1.40;99.90
41310;DHT22;27057;51.438;-0.010;2024-01-15T04:30:17;1.20;99.90
41310;DHT22;27057;51.438;-0.010;2024-01-15T04:35:12;1.20;99.90
41310;DHT22;27057;51.438;-0.010;2024-01-15T04:40:08;1.10;99.90
41310;DHT22;27057;51.438;-0.010;2024-01-15T04:42:36;1.30;99.90
41310;DHT22;27057;51.438;-0.010;2024-01-15T04:45:03;1.40;99.90
41310;DHT22;27057;51.438;-0.010;2024-01-15T04:49:59;1.30;99.90
41310;DHT22;27057;51.438;-0.010;2024-01-15T04:59:50;1.10;99.90
41310;DHT22;27057;51.438;-0.010;2024-01-15T05:02:18;1.30;99.90
41310;DHT22;27057;51.438;-0.010;2024-01-15T05:07:13;1.20;99.90
41310;DHT22;27057;51.438;-0.010;2024-01-15T05:12:08;1.30;99.90
41310;DHT22;27057;51.438;-0.010;2024-01-15T05:14:35;1.10;99.90
41310;DHT22;27057;51.438;-0.010;2024-01-15T05:17:03;1.10;99.90
41310;DHT22;27057;51.438;-0.010;2024-01-15T05:19:33;1.00;99.90
41310;DHT22;27057;51.438;-0.010;2024-01-15T05:22:00;1.00;99.90
41310;DHT22;27057;51.438;-0.010;2024-01-15T05:24:28;1.10;99.90
41310;DHT22;27057;51.438;-0.010;2024-01-15T05:26:55;1.00;99.90
41310;DHT22;27057;51.438;-0.010;2024-01-15T05:29:22;1.00;99.90
41310;DHT22;27057;51.438;-0.010;2024-01-15T05:31:50;0.90;99.90
41310;DHT22;27057;51.438;-0.010;2024-01-15T05:34:18;0.90;99.90
41310;DHT22;27057;51.438;-0.010;2024-01-15T05:36:45;0.90;99.90
41310;DHT22;27057;51.438;-0.010;2024-01-15T05:39:15;2.40;99.90
41310;DHT22;27057;51.438;-0.010;2024-01-15T05:41:42;0.80;99.90
41310;DHT22;27057;51.438;-0.010;2024-01-15T05:46:37;0.80;99.90
41310;DHT22;27057;51.438;-0.010;2024-01-15T05:49:05;0.70;99.90
41310;DHT22;27057;51.438;-0.010;2024-01-15T05:51:32;1.10;99.90
41310;DHT22;27057;51.438;-0.010;2024-01-15T05:54:00;0.70;99.90
41310;DHT22;27057;51.438;-0.010;2024-01-15T05:56:27;0.80;99.90
41310;DHT22;27057;51.438;-0.010;2024-01-15T05:58:54;0.70;99.90
41310;DHT22;27057;51.438;-0.010;2024-01-15T06:01:22;0.70;99.90
41310;DHT22;27057;51.438;-0.010;2024-01-15T06:03:49;0.70;99.90
41310;DHT22;27057;51.438;-0.010;2024-01-15T06:06:17;0.60;99.90
41310;DHT22;27057;51.438;-0.010;2024-01-15T06:11:12;0.50;99.90
41310;DHT22;27057;51.438;-0.010;2024-01-15T06:13:40;0.80;99.90
41310;DHT22;27057;51.438;-0.010;2024-01-15T06:16:14;0.70;99.90
41310;DHT22;27057;51.438;-0.010;2024-01-15T06:18:44;0.90;99.90
41310;DHT22;27057;51.438;-0.010;2024-01-15T06:23:41;0.60;99.90
41310;DHT22;27057;51.438;-0.010;2024-01-15T06:26:11;0.70;99.90
41310;DHT22;27057;51.438;-0.010;2024-01-15T06:28:39;0.80;99.90
41310;DHT22;27057;51.438;-0.010;2024-01-15T06:31:06;0.50;99.90
41310;DHT22;27057;51.438;-0.010;2024-01-15T06:36:04;0.70;99.90
41310;DHT22;27057;51.438;-0.010;2024-01-15T06:38:32;0.70;99.90
41310;DHT22;27057;51.438;-0.010;2024-01-15T06:41:00;0.90;99.90
41310;DHT22;27057;51.438;-0.010;2024-01-15T06:43:28;0.90;99.90
41310;DHT22;27057;51.438;-0.010;2024-01-15T06:48:23;0.60;99.90
41310;DHT22;27057;51.438;-0.010;2024-01-15T06:53:18;0.90;99.90
41310;DHT22;27057;51.438;-0.010;2024-01-15T06:55:46;1.00;99.90
41310;DHT22;27057;51.438;-0.010;2024-01-15T06:58:13;2.50;99.90
41310;DHT22;27057;51.438;-0.010;2024-01-15T07:00:41;0.70;99.90
41310;DHT22;27057;51.438;-0.010;2024-01-15T07:05:36;0.90;99.90
41310;DHT22;27057;51.438;-0.010;2024-01-15T07:08:05;0.80;99.90
41310;DHT22;27057;51.438;-0.010;2024-01-15T07:10:32;0.80;99.90
41310;DHT22;27057;51.438;-0.010;2024-01-15T07:13:03;0.80;99.90
41310;DHT22;27057;51.438;-0.010;2024-01-15T07:15:32;0.70;99.90
41310;DHT22;27057;51.438;-0.010;2024-01-15T07:18:00;1.70;99.90
41310;DHT22;27057;51.438;-0.010;2024-01-15T07:20:27;1.00;99.90
41310;DHT22;27057;51.438;-0.010;2024-01-15T07:27:53;0.60;99.90
41310;DHT22;27057;51.438;-0.010;2024-01-15T07:30:21;0.70;99.90
41310;DHT22;27057;51.438;-0.010;2024-01-15T07:32:51;0.80;99.90
41310;DHT22;27057;51.438;-0.010;2024-01-15T07:35:20;0.60;99.90
41310;DHT22;27057;51.438;-0.010;2024-01-15T07:37:48;0.70;99.90
41310;DHT22;27057;51.438;-0.010;2024-01-15T07:40:15;0.70;99.90
41310;DHT22;27057;51.438;-0.010;2024-01-15T07:42:43;0.80;99.90
41310;DHT22;27057;51.438;-0.010;2024-01-15T07:45:11;0.70;99.90
41310;DHT22;27057;51.438;-0.010;2024-01-15T07:47:38;0.90;99.90
41310;DHT22;27057;51.438;-0.010;2024-01-15T07:50:06;0.70;99.90
41310;DHT22;27057;51.438;-0.010;2024-01-15T07:52:35;0.70;99.90
41310;DHT22;27057;51.438;-0.010;2024-01-15T07:55:02;0.70;99.90
41310;DHT22;27057;51.438;-0.010;2024-01-15T08:00:00;0.60;99.90
41310;DHT22;27057;51.438;-0.010;2024-01-15T08:05:05;0.70;99.90
41310;DHT22;27057;51.438;-0.010;2024-01-15T08:12:28;0.70;99.90
41310;DHT22;27057;51.438;-0.010;2024-01-15T08:19:55;0.60;99.90
41310;DHT22;27057;51.438;-0.010;2024-01-15T08:29:47;0.60;99.90
41310;DHT22;27057;51.438;-0.010;2024-01-15T08:34:43;0.50;99.90
41310;DHT22;27057;51.438;-0.010;2024-01-15T08:37:10;0.70;99.90
41310;DHT22;27057;51.438;-0.010;2024-01-15T08:39:38;0.70;99.90
41310;DHT22;27057;51.438;-0.010;2024-01-15T08:42:05;0.70;99.90
41310;DHT22;27057;51.438;-0.010;2024-01-15T08:44:33;0.60;99.90
41310;DHT22;27057;51.438;-0.010;2024-01-15T08:47:01;0.60;99.90
41310;DHT22;27057;51.438;-0.010;2024-01-15T08:49:30;0.60;99.90
41310;DHT22;27057;51.438;-0.010;2024-01-15T08:51:58;0.60;99.90
41310;DHT22;27057;51.438;-0.010;2024-01-15T08:54:25;0.50;99.90
41310;DHT22;27057;51.438;-0.010;2024-01-15T09:01:53;0.50;99.90
41310;DHT22;27057;51.438;-0.010;2024-01-15T09:06:49;0.90;99.90
41310;DHT22;27057;51.438;-0.010;2024-01-15T09:11:45;0.80;99.90
41310;DHT22;27057;51.438;-0.010;2024-01-15T09:16:45;0.90;99.90
41310;DHT22;27057;51.438;-0.010;2024-01-15T09:21:40;0.90;99.90
41310;DHT22;27057;51.438;-0.010;2024-01-15T09:26:36;0.90;99.90
41310;DHT22;27057;51.438;-0.010;2024-01-15T09:36:27;1.10;99.90
41310;DHT22;27057;51.438;-0.010;2024-01-15T09:41:22;1.10;99.90
41310;DHT22;27057;51.438;-0.010;2024-01-15T09:43:50;1.40;99.90
41310;DHT22;27057;51.438;-0.010;2024-01-15T09:46:19;1.10;99.90
41310;DHT22;27057;51.438;-0.010;2024-01-15T09:48:46;1.20;99.90
41310;DHT22;27057;51.438;-0.010;2024-01-15T09:51:14;1.40;99.90
41310;DHT22;27057;51.438;-0.010;2024-01-15T09:53:43;1.30;99.90
41310;DHT22;27057;51.438;-0.010;2024-01-15T09:58:39;1.30;99.90
41310;DHT22;27057;51.438;-0.010;2024-01-15T10:01:09;1.40;99.90
41310;DHT22;27057;51.438;-0.010;2024-01-15T10:03:39;1.40;99.90
41310;DHT22;27057;51.438;-0.010;2024-01-15T10:06:07;1.50;99.90
41310;DHT22;27057;51.438;-0.010;2024-01-15T10:08:37;1.60;99.90
41310;DHT22;27057;51.438;-0.010;2024-01-15T10:11:04;1.90;99.90
41310;DHT22;27057;51.438;-0.010;2024-01-15T10:13:32;1.60;99.90
41310;DHT22;27057;51.438;-0.010;2024-01-15T10:16:01;1.50;99.90
41310;DHT22;27057;51.438;-0.010;2024-01-15T10:18:30;1.40;99.90
41310;DHT22;27057;51.438;-0.010;2024-01-15T10:23:27;1.60;99.90
41310;DHT22;27057;51.438;-0.010;2024-01-15T10:25:56;1.80;99.90
41310;DHT22;27057;51.438;-0.010;2024-01-15T10:28:26;1.80;99.90
41310;DHT22;27057;51.438;-0.010;2024-01-15T10:30:55;1.70;99.90
41310;DHT22;27057;51.438;-0.010;2024-01-15T10:35:59;1.80;99.90
41310;DHT22;27057;51.438;-0.010;2024-01-15T10:40:55;2.10;99.90
41310;DHT22;27057;51.438;-0.010;2024-01-15T10:45:55;2.30;99.90
41310;DHT22;27057;51.438;-0.010;2024-01-15T10:48:23;2.40;99.90
41310;DHT22;27057;51.438;-0.010;2024-01-15T10:50:50;2.30;99.90
41310;DHT22;27057;51.438;-0.010;2024-01-15T10:53:18;2.00;99.90
41310;DHT22;27057;51.438;-0.010;2024-01-15T10:55:46;1.70;99.90
41310;DHT22;27057;51.438;-0.010;2024-01-15T10:58:16;2.30;99.90
41310;DHT22;27057;51.438;-0.010;2024-01-15T11:05:44;2.20;99.90
41310;DHT22;27057;51.438;-0.010;2024-01-15T11:08:12;2.50;99.90
41310;DHT22;27057;51.438;-0.010;2024-01-15T11:10:46;2.80;99.90
41310;DHT22;27057;51.438;-0.010;2024-01-15T11:16:09;2.80;99.90
41310;DHT22;27057;51.438;-0.010;2024-01-15T11:18:41;3.90;99.90
41310;DHT22;27057;51.438;-0.010;2024-01-15T11:23:48;3.10;99.90
41310;DHT22;27057;51.438;-0.010;2024-01-15T11:29:28;3.30;99.90
41310;DHT22;27057;51.438;-0.010;2024-01-15T11:32:01;4.00;99.90
41310;DHT22;27057;51.438;-0.010;2024-01-15T11:34:54;4.40;99.90
41310;DHT22;27057;51.438;-0.010;2024-01-15T11:37:27;4.20;99.90
41310;DHT22;27057;51.438;-0.010;2024-01-15T11:40:00;5.20;99.90
41310;DHT22;27057;51.438;-0.010;2024-01-15T11:42:28;5.40;99.90
41310;DHT22;27057;51.438;-0.010;2024-01-15T11:44:56;5.30;99.90
41310;DHT22;27057;51.438;-0.010;2024-01-15T11:47:53;5.60;99.90
41310;DHT22;27057;51.438;-0.010;2024-01-15T11:50:28;5.50;99.90
41310;DHT22;27057;51.438;-0.010;2024-01-15T11:53:03;5.50;99.90
41310;DHT22;27057;51.438;-0.010;2024-01-15T11:55:35;5.80;99.90
41310;DHT22;27057;51.438;-0.010;2024-01-15T11:58:08;6.00;99.90
41310;DHT22;27057;51.438;-0.010;2024-01-15T12:00:40;6.00;99.90
41310;DHT22;27057;51.438;-0.010;2024-01-15T12:03:10;6.00;99.90
41310;DHT22;27057;51.438;-0.010;2024-01-15T12:05:38;5.90;99.90
41310;DHT22;27057;51.438;-0.010;2024-01-15T12:08:06;6.10;99.90
41310;DHT22;27057;51.438;-0.010;2024-01-15T12:10:39;6.20;99.90
41310;DHT22;27057;51.438;-0.010;2024-01-15T12:13:13;6.30;99.90
41310;DHT22;27057;51.438;-0.010;2024-01-15T12:15:42;6.40;99.90
41310;DHT22;27057;51.438;-0.010;2024-01-15T12:18:16;6.40;99.90
41310;DHT22;27057;51.438;-0.010;2024-01-15T12:20:45;6.80;99.90
41310;DHT22;27057;51.438;-0.010;2024-01-15T12:23:16;7.00;99.90
41310;DHT22;27057;51.438;-0.010;2024-01-15T12:25:45;8.00;99.90
41310;DHT22;27057;51.438;-0.010;2024-01-15T12:28:15;7.20;99.90
41310;DHT22;27057;51.438;-0.010;2024-01-15T12:30:45;7.00;99.90
41310;DHT22;27057;51.438;-0.010;2024-01-15T12:33:18;7.20;99.90
41310;DHT22;27057;51.438;-0.010;2024-01-15T12:35:48;6.90;99.90
41310;DHT22;27057;51.438;-0.010;2024-01-15T12:38:19;7.00;99.90
41310;DHT22;27057;51.438;-0.010;2024-01-15T12:40:48;6.60;99.90
41310;DHT22;27057;51.438;-0.010;2024-01-15T12:43:16;7.70;99.90
41310;DHT22;27057;51.438;-0.010;2024-01-15T12:48:12;7.60;99.90
41310;DHT22;27057;51.438;-0.010;2024-01-15T12:53:13;7.60;99.90
41310;DHT22;27057;51.438;-0.010;2024-01-15T12:58:08;6.80;99.90
41310;DHT22;27057;51.438;-0.010;2024-01-15T13:00:36;6.70;99.90
41310;DHT22;27057;51.438;-0.010;2024-01-15T13:03:04;6.80;99.90
41310;DHT22;27057;51.438;-0.010;2024-01-15T13:05:32;6.80;99.90
41310;DHT22;27057;51.438;-0.010;2024-01-15T13:08:01;7.10;99.90
41310;DHT22;27057;51.438;-0.010;2024-01-15T13:10:31;7.40;99.90
41310;DHT22;27057;51.438;-0.010;2024-01-15T13:12:59;7.70;99.90
41310;DHT22;27057;51.438;-0.010;2024-01-15T13:15:26;7.90;99.90
41310;DHT22;27057;51.438;-0.010;2024-01-15T13:20:24;8.10;99.90
41310;DHT22;27057;51.438;-0.010;2024-01-15T13:22:53;8.20;99.90
41310;DHT22;27057;51.438;-0.010;2024-01-15T13:27:50;8.20;99.90
41310;DHT22;27057;51.438;-0.010;2024-01-15T13:30:19;8.20;99.90
41310;DHT22;27057;51.438;-0.010;2024-01-15T13:32:46;8.80;99.90
41310;DHT22;27057;51.438;-0.010;2024-01-15T13:35:14;7.50;99.90
41310;DHT22;27057;51.438;-0.010;2024-01-15T13:37:41;7.60;99.90
41310;DHT22;27057;51.438;-0.010;2024-01-15T13:40:10;7.50;99.90
41310;DHT22;27057;51.438;-0.010;2024-01-15T13:42:43;7.60;99.90
41310;DHT22;27057;51.438;-0.010;2024-01-15T13:45:11;7.90;99.90
41310;DHT22;27057;51.438;-0.010;2024-01-15T13:47:42;8.00;99.90
41310;DHT22;27057;51.438;-0.010;2024-01-15T13:50:12;8.40;99.90
41310;DHT22;27057;51.438;-0.010;2024-01-15T13:52:40;8.20;99.90
41310;DHT22;27057;51.438;-0.010;2024-01-15T13:55:07;8.30;99.90
41310;DHT22;27057;51.438;-0.010;2024-01-15T13:57:36;8.90;99.90
41310;DHT22;27057;51.438;-0.010;2024-01-15T14:00:04;8.70;99.90
41310;DHT22;27057;51.438;-0.010;2024-01-15T14:02:37;8.90;99.90
41310;DHT22;27057;51.438;-0.010;2024-01-15T14:05:05;8.80;99.90
41310;DHT22;27057;51.438;-0.010;2024-01-15T14:07:33;8.50;99.90
41310;DHT22;27057;51.438;-0.010;2024-01-15T14:12:29;8.10;99.90
41310;DHT22;27057;51.438;-0.010;2024-01-15T14:14:56;8.10;99.90
41310;DHT22;27057;51.438;-0.010;2024-01-15T14:19:51;8.60;99.90
41310;DHT22;27057;51.438;-0.010;2024-01-15T14:22:22;8.60;99.90
41310;DHT22;27057;51.438;-0.010;2024-01-15T14:24:52;8.30;99.90
41310;DHT22;27057;51.438;-0.010;2024-01-15T14:27:20;8.90;99.90
41310;DHT22;27057;51.438;-0.010;2024-01-15T14:29:49;8.40;99.80
41310;DHT22;27057;51.438;-0.010;2024-01-15T14:32:16;8.50;99.70
41310;DHT22;27057;51.438;-0.010;2024-01-15T14:34:44;8.50;99.90
41310;DHT22;27057;51.438;-0.010;2024-01-15T14:37:12;8.80;99.90
41310;DHT22;27057;51.438;-0.010;2024-01-15T14:39:39;9.00;99.90
41310;DHT22;27057;51.438;-0.010;2024-01-15T14:42:09;9.30;99.90
41310;DHT22;27057;51.438;-0.010;2024-01-15T14:44:36;8.80;99.90
41310;DHT22;27057;51.438;-0.010;2024-01-15T14:47:05;9.10;99.90
41310;DHT22;27057;51.438;-0.010;2024-01-15T14:49:33;9.00;99.90
41310;DHT22;27057;51.438;-0.010;2024-01-15T14:52:01;8.70;99.90
41310;DHT22;27057;51.438;-0.010;2024-01-15T14:54:31;8.20;99.90
41310;DHT22;27057;51.438;-0.010;2024-01-15T14:56:58;8.10;99.90
41310;DHT22;27057;51.438;-0.010;2024-01-15T14:59:25;8.00;99.90
41310;DHT22;27057;51.438;-0.010;2024-01-15T15:01:55;7.70;99.10
41310;DHT22;27057;51.438;-0.010;2024-01-15T15:04:25;7.70;99.90
41310;DHT22;27057;51.438;-0.010;2024-01-15T15:06:54;7.50;99.90
41310;DHT22;27057;51.438;-0.010;2024-01-15T15:09:22;6.70;99.90
41310;DHT22;27057;51.438;-0.010;2024-01-15T15:11:50;6.60;99.90
41310;DHT22;27057;51.438;-0.010;2024-01-15T15:14:19;6.50;99.90
41310;DHT22;27057;51.438;-0.010;2024-01-15T15:19:15;6.00;99.90
41310;DHT22;27057;51.438;-0.010;2024-01-15T15:21:45;6.20;99.90
41310;DHT22;27057;51.438;-0.010;2024-01-15T15:24:12;5.80;99.90
41310;DHT22;27057;51.438;-0.010;2024-01-15T15:26:40;5.50;99.90
41310;DHT22;27057;51.438;-0.010;2024-01-15T15:29:08;5.00;99.90
41310;DHT22;27057;51.438;-0.010;2024-01-15T15:41:27;4.50;99.90
41310;DHT22;27057;51.438;-0.010;2024-01-15T15:43:55;4.30;99.90
41310;DHT22;27057;51.438;-0.010;2024-01-15T15:46:22;4.10;99.90
41310;DHT22;27057;51.438;-0.010;2024-01-15T15:56:16;4.00;99.90
41310;DHT22;27057;51.438;-0.010;2024-01-15T15:58:44;3.80;99.90
41310;DHT22;27057;51.438;-0.010;2024-01-15T16:01:11;3.70;99.90
41310;DHT22;27057;51.438;-0.010;2024-01-15T16:03:39;3.70;99.90
41310;DHT22;27057;51.438;-0.010;2024-01-15T16:06:07;3.50;99.90
41310;DHT22;27057;51.438;-0.010;2024-01-15T16:08:34;3.60;99.90
41310;DHT22;27057;51.438;-0.010;2024-01-15T16:15:57;3.00;99.90
41310;DHT22;27057;51.438;-0.010;2024-01-15T16:18:44;3.10;99.90
41310;DHT22;27057;51.438;-0.010;2024-01-15T16:21:32;3.20;99.90
41310;DHT22;27057;51.438;-0.010;2024-01-15T16:27:08;2.70;99.90
41310;DHT22;27057;51.438;-0.010;2024-01-15T16:32:07;2.70;99.90
41310;DHT22;27057;51.438;-0.010;2024-01-15T16:34:35;2.90;99.90
41310;DHT22;27057;51.438;-0.010;2024-01-15T16:41:59;2.40;99.90
41310;DHT22;27057;51.438;-0.010;2024-01-15T16:46:54;2.40;99.90
41310;DHT22;27057;51.438;-0.010;2024-01-15T16:51:59;2.40;99.90
41310;DHT22;27057;51.438;-0.010;2024-01-15T16:54:27;2.50;99.90
41310;DHT22;27057;51.438;-0.010;2024-01-15T16:56:55;2.20;99.90
41310;DHT22;27057;51.438;-0.010;2024-01-15T16:59:23;2.10;99.90
41310;DHT22;27057;51.438;-0.010;2024-01-15T17:14:09;2.20;99.90
41310;DHT22;27057;51.438;-0.010;2024-01-15T17:16:37;2.50;99.90
41310;DHT22;27057;51.438;-0.010;2024-01-15T17:19:04;2.20;99.90
41310;DHT22;27057;51.438;-0.010;2024-01-15T17:21:34;2.10;99.90
41310;DHT22;27057;51.438;-0.010;2024-01-15T17:24:01;2.10;99.90
41310;DHT22;27057;51.438;-0.010;2024-01-15T17:26:31;2.10;99.90
41310;DHT22;27057;51.438;-0.010;2024-01-15T17:29:00;2.10;99.90
41310;DHT22;27057;51.438;-0.010;2024-01-15T17:31:27;2.10;99.90
41310;DHT22;27057;51.438;-0.010;2024-01-15T17:33:55;2.00;99.90
41310;DHT22;27057;51.438;-0.010;2024-01-15T17:36:25;2.00;99.90
41310;DHT22;27057;51.438;-0.010;2024-01-15T17:38:53;2.00;99.90
41310;DHT22;27057;51.438;-0.010;2024-01-15T17:41:20;2.00;99.90
41310;DHT22;27057;51.438;-0.010;2024-01-15T17:43:48;2.80;99.90
41310;DHT22;27057;51.438;-0.010;2024-01-15T17:46:15;2.50;99.90
41310;DHT22;27057;51.438;-0.010;2024-01-15T17:48:43;1.90;99.90
41310;DHT22;27057;51.438;-0.010;2024-01-15T17:51:16;1.90;99.90
41310;DHT22;27057;51.438;-0.010;2024-01-15T17:53:45;1.90;99.90
41310;DHT22;27057;51.438;-0.010;2024-01-15T17:56:15;1.80;99.90
41310;DHT22;27057;51.438;-0.010;2024-01-15T17:58:42;1.80;99.90
41310;DHT22;27057;51.438;-0.010;2024-01-15T18:01:10;1.80;99.90
41310;DHT22;27057;51.438;-0.010;2024-01-15T18:03:38;1.80;99.90
41310;DHT22;27057;51.438;-0.010;2024-01-15T18:06:08;1.80;99.90
41310;DHT22;27057;51.438;-0.010;2024-01-15T18:08:37;1.80;99.90
41310;DHT22;27057;51.438;-0.010;2024-01-15T18:11:05;1.80;99.90
41310;DHT22;27057;51.438;-0.010;2024-01-15T18:13:32;1.70;99.90
41310;DHT22;27057;51.438;-0.010;2024-01-15T18:16:00;1.70;99.90
41310;DHT22;27057;51.438;-0.010;2024-01-15T18:18:27;1.90;99.90
41310;DHT22;27057;51.438;-0.010;2024-01-15T18:20:54;1.70;99.90
41310;DHT22;27057;51.438;-0.010;2024-01-15T18:23:22;1.80;99.90
41310;DHT22;27057;51.438;-0.010;2024-01-15T18:25:50;1.60;99.90
41310;DHT22;27057;51.438;-0.010;2024-01-15T18:30:45;1.60;99.90
41310;DHT22;27057;51.438;-0.010;2024-01-15T18:35:41;1.40;99.90
41310;DHT22;27057;51.438;-0.010;2024-01-15T18:38:08;1.50;99.90
41310;DHT22;27057;51.438;-0.010;2024-01-15T18:40:36;1.40;99.90
41310;DHT22;27057;51.438;-0.010;2024-01-15T18:45:32;1.40;99.90
41310;DHT22;27057;51.438;-0.010;2024-01-15T18:47:59;1.10;99.90
41310;DHT22;27057;51.438;-0.010;2024-01-15T18:50:26;1.60;99.90
41310;DHT22;27057;51.438;-0.010;2024-01-15T18:52:56;1.50;99.90
41310;DHT22;27057;51.438;-0.010;2024-01-15T18:55:25;1.30;99.90
41310;DHT22;27057;51.438;-0.010;2024-01-15T18:57:53;1.30;99.90
41310;DHT22;27057;51.438;-0.010;2024-01-15T19:02:52;1.30;99.90
41310;DHT22;27057;51.438;-0.010;2024-01-15T19:05:25;1.20;99.90
41310;DHT22;27057;51.438;-0.010;2024-01-15T19:07:55;1.20;99.90
41310;DHT22;27057;51.438;-0.010;2024-01-15T19:15:18;0.90;99.90
41310;DHT22;27057;51.438;-0.010;2024-01-15T19:22:47;0.80;99.90
41310;DHT22;27057;51.438;-0.010;2024-01-15T19:25:14;0.70;99.90
41310;DHT22;27057;51.438;-0.010;2024-01-15T19:30:12;0.50;99.90
41310;DHT22;27057;51.438;-0.010;2024-01-15T19:32:44;1.00;99.90
41310;DHT22;27057;51.438;-0.010;2024-01-15T19:35:12;1.10;99.90
41310;DHT22;27057;51.438;-0.010;2024-01-15T19:40:08;1.00;99.90
41310;DHT22;27057;51.438;-0.010;2024-01-15T19:42:36;0.70;99.90
41310;DHT22;27057;51.438;-0.010;2024-01-15T19:45:04;1.00;99.90
41310;DHT22;27057;51.438;-0.010;2024-01-15T19:47:32;0.80;99.90
41310;DHT22;27057;51.438;-0.010;2024-01-15T19:52:27;0.90;99.90
41310;DHT22;27057;51.438;-0.010;2024-01-15T19:54:55;0.60;99.90
41310;DHT22;27057;51.438;-0.010;2024-01-15T19:57:23;0.70;99.90
41310;DHT22;27057;51.438;-0.010;2024-01-15T19:59:51;1.60;99.90